Peshastin, WA

3:40 AM PDT on August 20, 2014 (GMT -0700)
HADS PESHASTIN CREEK AT GREEN BRIDGE WA US WADOECO | Change Station
CLOSE
Current Station
Personal Weather Station
Location: Peshastin, WA
Elevation: 1080 ft
Nearby Weather Stations

Elev 1080 ft 47.55 °N, 120.60 °W | Updated 1 hour ago

Clear
Clear
61 °F
Feels Like 61 °F
N
Wind Variable Wind from North
Gusts 0.0 mph

Today
High -- | Low -- °F
--% Chance of Precip.
Yesterday
High -- | Low -- °F
Precip. -- in
6:05 AM 8:05 PM
Waning Crescent, 22% visible
Pressure 29.68 in
Visibility 10.0 miles
Clouds Clear
Dew Point Not available.
Humidity Not available.
Rainfall -999.00 in
Snow Depth 0 in
UV 0 out of 12
Pollen 4.60 out of 12
Air Quality Not available.
Flu Activity Not available.
METAR KEAT 200955Z AUTO 29014KT 10SM CLR 22/10 A2972 RMK AO2 SLP050 T02220100

More Conditions Fewer Conditions

Pressure 29.68 in
Visibility 10.0 miles
Clouds Clear
Dew Point Not available.
Humidity Not available.
Rainfall -999.00 in
Snow Depth 0 in
UV 0 out of 12
Pollen 4.60 out of 12
Air Quality Not available.
Flu Activity Not available.
METAR KEAT 200955Z AUTO 29014KT 10SM CLR 22/10 A2972 RMK AO2 SLP050 T02220100

More Conditions Fewer Conditions

10-Day Weather Forecast

Almanac

Astronomy

Aug. 20, 2014 Rise Set
Actual Time 6:05 AM PDT 8:05 PM PDT
Civil Twilight 5:31 AM PDT 8:38 PM PDT
Nautical Twilight 4:50 AM PDT 9:19 PM PDT
Astronomical Twilight 4:05 AM PDT 10:04 PM PDT
Moon 1:41 AM PDT 5:01 PM PDT
Length of Visible Light 15h 06m
Length of Day
14h 00m
Tomorrow will be 3m 9s shorter.
Waning Crescent, 22% of the Moon is Illuminated
Today
Waning Crescent
Aug 25
New
Sep 2
First Quarter
Sep 8
Full
Sep 15
Last Quarter

Today's Extremes

State Highs State Lows

Community

WunderPhotos

Upload Photos

1,745,605 photos uploaded!

Nearby

Snow Depth

Station Depth Elevation
Grouse Camp 0 in 5380 ft
Sasse Ridge 0 in 4200 ft
Stevens Pass 0 in 4070 ft
Trough 0 in 5300 ft
Meadows Pass 0 in 3500 ft

Earthquake Activity

City Distance Mag. Time & Date
No recent earthquake activity has been reported nearby.
Minimum magnitude displayed is 2.5.

Coastal Water Temperatures

Place Temperature
No Stations Reporting

Nearby Weather Stations